createdAt,value
2023-01-30T00:02:11.549Z,11.60
2023-01-30T00:04:47.047Z,11.97
2023-01-30T00:07:18.632Z,12.07
2023-01-30T00:09:50.152Z,12.13
2023-01-30T00:12:22.100Z,11.50
2023-01-30T00:14:56.645Z,11.80
2023-01-30T00:17:30.820Z,11.80
2023-01-30T00:20:04.219Z,11.23
2023-01-30T00:22:35.873Z,11.30
2023-01-30T00:25:07.548Z,12.17
2023-01-30T00:27:39.586Z,11.83
2023-01-30T00:30:11.353Z,11.27
2023-01-30T00:32:42.812Z,11.33
2023-01-30T00:35:18.927Z,9.90
2023-01-30T00:37:50.425Z,11.47
2023-01-30T00:40:25.783Z,11.30
2023-01-30T00:43:17.019Z,11.20
2023-01-30T00:46:05.572Z,11.33
2023-01-30T00:48:37.363Z,11.30
2023-01-30T00:51:12.167Z,12.13
2023-01-30T00:53:44.349Z,11.00
2023-01-30T00:56:16.711Z,11.57
2023-01-30T00:58:48.739Z,11.60
2023-01-30T01:01:20.449Z,11.63
2023-01-30T01:03:52.256Z,12.33
2023-01-30T01:06:25.978Z,10.53
2023-01-30T01:08:57.377Z,12.60
2023-01-30T01:11:28.953Z,9.37
2023-01-30T01:14:00.727Z,9.73
2023-01-30T01:16:32.619Z,11.90
2023-01-30T01:19:07.376Z,10.53
2023-01-30T01:21:40.709Z,11.13
2023-01-30T01:24:16.956Z,13.67
2023-01-30T01:26:48.384Z,12.23
2023-01-30T01:29:20.579Z,12.60
2023-01-30T01:31:52.257Z,11.63
2023-01-30T01:34:26.448Z,12.40
2023-01-30T01:36:59.263Z,11.07
2023-01-30T01:39:51.882Z,12.03
2023-01-30T01:42:21.901Z,11.60
2023-01-30T01:45:07.630Z,11.70
2023-01-30T01:47:39.626Z,11.53
2023-01-30T01:50:18.795Z,10.97
2023-01-30T01:52:56.267Z,12.57
2023-01-30T01:55:32.013Z,11.70
2023-01-30T01:58:08.125Z,12.37
2023-01-30T02:00:42.949Z,12.43
2023-01-30T02:03:19.049Z,12.03
2023-01-30T02:05:56.268Z,12.70
2023-01-30T02:08:33.078Z,12.13
2023-01-30T02:11:11.493Z,11.10
2023-01-30T02:13:43.349Z,12.70
2023-01-30T02:16:15.263Z,13.10
2023-01-30T02:18:48.860Z,11.97
2023-01-30T02:21:51.884Z,11.40
2023-01-30T02:24:56.183Z,12.57
2023-01-30T02:28:10.578Z,10.60
2023-01-30T02:31:09.064Z,12.00
2023-01-30T02:33:54.614Z,12.10
2023-01-30T02:36:45.191Z,11.50
2023-01-30T02:39:27.640Z,12.47
2023-01-30T02:42:08.686Z,12.93
2023-01-30T02:44:48.620Z,13.70
2023-01-30T02:47:28.112Z,11.10
2023-01-30T02:50:06.747Z,11.77
2023-01-30T02:52:38.397Z,10.87
2023-01-30T02:55:21.127Z,12.60
2023-01-30T02:57:54.384Z,11.40
2023-01-30T03:00:36.225Z,12.90
2023-01-30T03:03:25.274Z,13.30
2023-01-30T03:06:19.425Z,10.87
2023-01-30T03:09:11.026Z,10.23
2023-01-30T03:11:50.089Z,10.93
2023-01-30T03:14:29.347Z,12.00
2023-01-30T03:17:04.097Z,10.40
2023-01-30T03:19:42.354Z,13.13
2023-01-30T03:22:13.392Z,11.93
2023-01-30T03:24:44.688Z,11.07
2023-01-30T03:27:16.515Z,11.93
2023-01-30T03:29:45.984Z,12.07
2023-01-30T03:32:17.699Z,10.83
2023-01-30T03:34:49.757Z,10.50
2023-01-30T03:37:19.355Z,12.20
2023-01-30T03:39:48.530Z,11.93
2023-01-30T03:42:17.716Z,12.60
2023-01-30T03:44:46.994Z,12.00
2023-01-30T03:47:16.596Z,12.23
2023-01-30T03:49:48.605Z,12.50
2023-01-30T03:52:19.001Z,13.17
2023-01-30T03:54:48.291Z,12.67
2023-01-30T03:57:18.405Z,13.17
2023-01-30T03:59:48.125Z,13.80
2023-01-30T04:02:21.265Z,12.53
2023-01-30T04:10:20.253Z,12.83
2023-01-30T04:13:04.081Z,14.03
2023-01-30T04:15:36.134Z,12.10
2023-01-30T04:18:08.555Z,12.20
2023-01-30T04:20:45.988Z,10.53
2023-01-30T04:23:19.955Z,12.97
2023-01-30T04:25:52.440Z,12.63
2023-01-30T04:28:23.272Z,9.50
2023-01-30T04:30:57.254Z,10.77
2023-01-30T04:33:31.605Z,12.60
2023-01-30T04:36:07.346Z,13.67
2023-01-30T04:38:40.930Z,11.27
2023-01-30T04:41:11.947Z,11.30
2023-01-30T04:43:42.490Z,13.77
2023-01-30T04:46:11.832Z,12.77
2023-01-30T04:48:40.978Z,12.53
2023-01-30T04:51:11.538Z,12.67
2023-01-30T04:53:42.301Z,11.57
2023-01-30T04:56:10.940Z,11.70
2023-01-30T04:58:40.377Z,12.00
2023-01-30T05:01:17.523Z,7.97
2023-01-30T05:03:48.256Z,9.67
2023-01-30T05:06:16.878Z,11.67
2023-01-30T05:08:50.448Z,9.10
2023-01-30T05:11:19.700Z,11.20
2023-01-30T05:13:48.792Z,12.23
2023-01-30T05:16:18.273Z,8.33
2023-01-30T05:18:46.963Z,12.30
2023-01-30T05:21:17.074Z,13.00
2023-01-30T05:23:48.513Z,10.73
2023-01-30T05:26:18.166Z,9.93
2023-01-30T05:28:49.274Z,9.73
2023-01-30T05:31:17.807Z,11.20
2023-01-30T05:33:48.979Z,9.87
2023-01-30T05:36:20.195Z,8.47
2023-01-30T05:38:51.822Z,11.07
2023-01-30T05:41:20.657Z,11.03
2023-01-30T05:43:51.570Z,11.23
2023-01-30T05:46:21.210Z,11.13
2023-01-30T05:48:50.026Z,11.53
2023-01-30T05:51:21.666Z,9.37
2023-01-30T05:53:52.359Z,10.80
2023-01-30T05:59:25.365Z,9.43
2023-01-30T06:01:56.006Z,9.20
2023-01-30T06:04:26.916Z,10.07
2023-01-30T06:06:55.949Z,10.30
2023-01-30T06:09:27.648Z,9.63
2023-01-30T06:12:00.498Z,7.50
2023-01-30T06:14:29.878Z,8.67
2023-01-30T06:17:09.031Z,9.80
2023-01-30T06:19:45.009Z,9.43
2023-01-30T06:22:30.408Z,9.40
2023-01-30T06:25:03.409Z,8.63
2023-01-30T06:27:33.701Z,10.47
2023-01-30T06:30:05.315Z,9.27
2023-01-30T06:35:26.144Z,7.70
2023-01-30T06:37:54.529Z,9.17
2023-01-30T08:49:03.481Z,6.33
2023-01-30T08:51:31.687Z,7.20
2023-01-30T08:54:00.131Z,6.63
2023-01-30T08:56:28.216Z,6.87
2023-01-30T08:58:56.410Z,5.33
2023-01-30T09:01:24.487Z,6.87
2023-01-30T09:03:53.438Z,6.00
2023-01-30T09:06:25.853Z,5.80
2023-01-30T09:08:54.644Z,6.00
2023-01-30T09:11:23.018Z,6.17
2023-01-30T09:13:51.313Z,6.87
2023-01-30T09:16:19.939Z,4.80
2023-01-30T09:18:48.709Z,5.20
2023-01-30T09:21:17.065Z,6.20
2023-01-30T09:23:47.047Z,5.97
2023-01-30T09:26:15.526Z,6.67
2023-01-30T09:28:43.714Z,5.60
2023-01-30T09:31:13.348Z,7.20
2023-01-30T09:33:42.398Z,6.97
2023-01-30T09:36:11.127Z,7.47
2023-01-30T09:38:39.473Z,5.27
2023-01-30T09:41:29.631Z,6.27
2023-01-30T09:44:16.011Z,6.33
2023-01-30T09:46:49.744Z,6.27
2023-01-30T09:49:29.573Z,6.80
2023-01-30T09:52:09.704Z,5.53
2023-01-30T09:54:41.471Z,6.30
2023-01-30T09:57:21.646Z,5.80
2023-01-30T10:00:10.150Z,6.77
2023-01-30T10:02:46.180Z,5.20
2023-01-30T10:05:15.049Z,5.27
2023-01-30T10:07:57.754Z,5.37
2023-01-30T10:10:42.491Z,5.27
2023-01-30T10:13:34.647Z,5.93
2023-01-30T10:16:12.246Z,5.93
2023-01-30T10:19:07.841Z,5.43
2023-01-30T10:21:47.748Z,6.03
2023-01-30T10:24:39.615Z,5.50
2023-01-30T10:27:14.142Z,5.73
2023-01-30T10:29:49.084Z,5.03
2023-01-30T10:32:21.657Z,4.73
2023-01-30T10:34:53.256Z,4.67
2023-01-30T10:37:27.990Z,4.50
2023-01-30T10:40:01.369Z,4.33
2023-01-30T10:42:33.213Z,4.83
2023-01-30T10:45:13.234Z,4.17
2023-01-30T10:47:53.053Z,4.17
2023-01-30T10:50:28.347Z,4.60
2023-01-30T10:53:05.226Z,4.80
2023-01-30T10:55:38.948Z,4.20
2023-01-30T10:58:18.546Z,4.63
2023-01-30T11:00:56.081Z,3.90
2023-01-30T11:03:29.623Z,3.93
2023-01-30T11:06:01.990Z,3.77
2023-01-30T11:08:31.914Z,3.37
2023-01-30T11:11:00.699Z,4.20
2023-01-30T11:13:31.623Z,4.93
2023-01-30T11:16:05.995Z,4.70
2023-01-30T11:19:18.211Z,4.33
2023-01-30T11:21:42.108Z,5.03
2023-01-30T11:24:17.421Z,3.97
2023-01-30T11:26:48.030Z,4.07
2023-01-30T11:29:25.150Z,3.60
2023-01-30T11:31:55.739Z,4.63
2023-01-30T11:34:25.435Z,3.93
2023-01-30T11:37:03.782Z,4.03
2023-01-30T11:39:34.941Z,4.63
2023-01-30T11:42:06.082Z,4.00
2023-01-30T11:44:37.282Z,3.77
2023-01-30T11:47:10.889Z,4.17
2023-01-30T11:49:48.141Z,3.93
2023-01-30T11:52:33.026Z,5.53
2023-01-30T11:55:05.768Z,4.27
2023-01-30T11:57:43.005Z,3.00
2023-01-30T12:00:19.081Z,3.90
2023-01-30T12:02:51.199Z,3.43
2023-01-30T12:05:26.273Z,3.87
2023-01-30T12:10:51.579Z,3.87
2023-01-30T12:13:42.060Z,3.97
2023-01-30T12:16:21.791Z,3.40
2023-01-30T12:19:03.580Z,3.30
2023-01-30T12:21:44.672Z,3.23
2023-01-30T12:30:16.172Z,4.07
2023-01-30T12:35:52.552Z,4.07
2023-01-30T12:45:00.042Z,4.13
2023-01-30T12:47:57.719Z,3.53
2023-01-30T12:54:19.691Z,3.23
2023-01-30T12:57:10.918Z,3.00
2023-01-30T12:59:51.226Z,3.33
2023-01-30T13:02:50.996Z,3.37
2023-01-30T13:05:27.050Z,2.87
2023-01-30T13:08:09.820Z,4.30
2023-01-30T13:10:44.506Z,4.33
2023-01-30T13:13:20.367Z,3.17
2023-01-30T13:15:58.421Z,3.47
2023-01-30T13:18:33.708Z,4.03
2023-01-30T13:21:12.602Z,3.90
2023-01-30T13:23:50.879Z,3.30
2023-01-30T13:26:22.818Z,4.27
2023-01-30T13:28:59.617Z,3.33
2023-01-30T13:31:31.861Z,4.27
2023-01-30T13:34:07.086Z,4.17
2023-01-30T13:36:43.675Z,3.27
2023-01-30T13:41:52.957Z,3.00
2023-01-30T13:44:26.276Z,3.20
2023-01-30T13:46:56.332Z,5.03
2023-01-30T13:49:32.801Z,2.47
2023-01-30T13:52:12.157Z,3.93
2023-01-30T13:55:01.143Z,3.40
2023-01-30T13:57:42.956Z,2.63
2023-01-30T14:00:34.388Z,2.70
2023-01-30T14:03:26.192Z,2.40
2023-01-30T14:06:06.572Z,2.87
2023-01-30T14:08:40.706Z,2.83
2023-01-30T14:11:33.903Z,3.37
2023-01-30T14:14:08.185Z,3.17
2023-01-30T14:16:47.438Z,2.43
2023-01-30T14:19:41.381Z,2.73
2023-01-30T14:22:22.859Z,3.00
2023-01-30T14:25:33.666Z,2.50
2023-01-30T14:28:35.263Z,2.77
2023-01-30T14:31:05.323Z,3.00
2023-01-30T14:33:36.641Z,2.67
2023-01-30T14:36:36.868Z,3.07
2023-01-30T14:39:39.933Z,3.20
2023-01-30T14:42:21.383Z,3.00
2023-01-30T14:45:17.019Z,3.00
2023-01-30T14:47:47.629Z,3.07
2023-01-30T14:50:24.012Z,3.97
2023-01-30T14:52:56.917Z,3.27
2023-01-30T14:55:29.432Z,3.07
2023-01-30T14:58:01.020Z,3.27
2023-01-30T15:00:32.438Z,3.20
2023-01-30T15:03:04.714Z,3.13
2023-01-30T15:05:38.414Z,2.93
2023-01-30T15:08:10.314Z,3.57
2023-01-30T15:11:07.007Z,3.10
2023-01-30T15:13:47.523Z,4.37
2023-01-30T15:16:42.272Z,3.07
2023-01-30T15:19:28.594Z,3.87
2023-01-30T15:22:08.245Z,3.60
2023-01-30T15:25:01.281Z,4.53
2023-01-30T15:27:35.206Z,3.07
2023-01-30T15:30:23.769Z,4.23
2023-01-30T15:33:10.384Z,4.87
2023-01-30T15:35:44.769Z,3.43
2023-01-30T15:38:42.471Z,4.07
2023-01-30T15:41:17.568Z,3.50
2023-01-30T15:44:01.178Z,3.57
2023-01-30T15:46:39.938Z,5.17
2023-01-30T15:49:30.275Z,4.43
2023-01-30T15:52:02.352Z,4.70
2023-01-30T15:54:31.845Z,3.23
2023-01-30T15:57:01.669Z,3.87
2023-01-30T15:59:35.932Z,3.30
2023-01-30T16:02:05.857Z,3.97
2023-01-30T16:04:33.832Z,3.67
2023-01-30T16:07:14.808Z,3.47
2023-01-30T16:10:06.343Z,4.70
2023-01-30T16:12:36.523Z,4.23
2023-01-30T16:15:18.842Z,4.40
2023-01-30T16:18:00.037Z,3.33
2023-01-30T16:20:28.307Z,3.80
2023-01-30T16:22:56.532Z,4.43
2023-01-30T16:25:30.217Z,3.97
2023-01-30T16:27:58.576Z,4.37
2023-01-30T16:30:29.726Z,3.50
2023-01-30T16:32:58.509Z,2.77
2023-01-30T16:35:33.925Z,4.37
2023-01-30T16:38:09.755Z,4.67
2023-01-30T16:40:47.047Z,4.40
2023-01-30T16:43:21.649Z,3.97
2023-01-30T16:46:22.637Z,4.37
2023-01-30T16:48:52.246Z,3.17
2023-01-30T16:51:25.295Z,3.40
2023-01-30T16:53:59.566Z,3.70
2023-01-30T16:56:29.580Z,4.30
2023-01-30T16:59:01.331Z,3.97
2023-01-30T17:01:39.095Z,4.43
2023-01-30T17:06:44.359Z,4.83
2023-01-30T17:09:37.804Z,4.70
2023-01-30T17:12:43.223Z,3.87
2023-01-30T17:15:36.085Z,4.67
2023-01-30T17:18:04.179Z,4.50
2023-01-30T17:20:42.932Z,4.77
2023-01-30T17:23:16.474Z,4.77
2023-01-30T17:25:47.625Z,4.83
2023-01-30T17:28:21.495Z,7.93
2023-01-30T17:30:51.343Z,5.07
2023-01-30T17:33:19.350Z,4.83
2023-01-30T17:35:47.545Z,5.07
2023-01-30T17:38:16.071Z,5.47
2023-01-30T17:40:44.277Z,4.90
2023-01-30T17:43:13.130Z,4.90
2023-01-30T17:45:41.420Z,6.03
2023-01-30T17:48:11.403Z,5.77
2023-01-30T17:50:39.463Z,4.17
2023-01-30T17:53:07.775Z,5.67
2023-01-30T17:55:36.585Z,4.93
2023-01-30T17:58:05.136Z,4.60
2023-01-30T18:00:33.571Z,6.90
2023-01-30T18:03:01.573Z,5.03
2023-01-30T18:05:47.224Z,4.17
2023-01-30T18:08:15.575Z,4.60
2023-01-30T18:10:43.595Z,3.90
2023-01-30T18:13:14.199Z,5.50
2023-01-30T18:15:42.249Z,4.03
2023-01-30T18:18:16.099Z,3.57
2023-01-30T18:20:56.238Z,4.53
2023-01-30T18:23:24.484Z,4.90
2023-01-30T18:25:52.785Z,4.67
2023-01-30T18:28:23.821Z,4.47
2023-01-30T18:30:52.001Z,4.97
2023-01-30T18:33:20.070Z,3.93
2023-01-30T18:36:03.179Z,3.40
2023-01-30T18:38:32.253Z,4.80
2023-01-30T18:41:00.684Z,3.83
2023-01-30T18:43:31.951Z,4.50
2023-01-30T18:46:04.251Z,4.10
2023-01-30T18:48:35.652Z,4.80
2023-01-30T18:51:13.794Z,3.90
2023-01-30T18:53:42.359Z,3.50
2023-01-30T18:56:12.117Z,3.53
2023-01-30T18:58:40.491Z,4.03
2023-01-30T19:01:14.284Z,3.57
2023-01-30T19:03:46.569Z,4.20
2023-01-30T19:06:18.271Z,3.57
2023-01-30T19:08:46.728Z,3.90
2023-01-30T19:11:48.215Z,2.60
2023-01-30T19:17:56.621Z,4.17
2023-01-30T19:20:31.006Z,5.07
2023-01-30T19:25:55.696Z,3.87
2023-01-30T19:28:24.009Z,3.97
2023-01-30T19:30:52.334Z,3.73
2023-01-30T19:33:20.782Z,4.10
2023-01-30T19:35:49.361Z,3.97
2023-01-30T19:38:19.089Z,3.93
2023-01-30T19:40:48.018Z,3.43
2023-01-30T19:43:21.246Z,3.93
2023-01-30T19:45:58.439Z,4.07
2023-01-30T19:48:28.010Z,4.53
2023-01-30T19:50:56.791Z,3.77
2023-01-30T19:53:27.707Z,3.07
2023-01-30T19:56:06.159Z,3.10
2023-01-30T19:58:35.268Z,2.63
2023-01-30T20:01:09.851Z,3.03
2023-01-30T20:03:38.562Z,3.77
2023-01-30T20:06:13.109Z,2.63
2023-01-30T20:08:43.564Z,3.03
2023-01-30T20:11:13.254Z,4.10
2023-01-30T20:13:42.747Z,3.40
2023-01-30T20:16:13.301Z,3.27
2023-01-30T20:18:42.399Z,4.27
2023-01-30T20:21:11.847Z,3.70
2023-01-30T20:23:41.288Z,3.17
2023-01-30T20:26:12.723Z,2.90
2023-01-30T20:28:41.728Z,4.20
2023-01-30T20:31:11.711Z,2.83
2023-01-30T20:33:40.318Z,3.17
2023-01-30T20:36:10.842Z,4.17
2023-01-30T20:38:40.826Z,3.20
2023-01-30T20:41:12.590Z,3.53
2023-01-30T20:43:42.832Z,3.30
2023-01-30T20:46:12.868Z,3.10
2023-01-30T20:48:41.359Z,3.00
2023-01-30T20:51:10.911Z,2.90
2023-01-30T20:53:39.977Z,4.20
2023-01-30T20:56:10.605Z,2.17
2023-01-30T20:58:40.757Z,3.17
2023-01-30T21:01:09.916Z,2.70
2023-01-30T21:03:38.300Z,2.20
2023-01-30T21:06:06.695Z,3.83
2023-01-30T21:08:35.416Z,3.40
2023-01-30T21:11:08.003Z,3.47
2023-01-30T21:13:37.025Z,2.70
2023-01-30T21:16:09.689Z,3.33
2023-01-30T21:18:39.399Z,3.63
2023-01-30T21:21:08.072Z,3.23
2023-01-30T21:23:37.011Z,2.50
2023-01-30T21:26:06.661Z,3.13
2023-01-30T21:28:35.107Z,2.50
2023-01-30T21:31:09.903Z,2.90
2023-01-30T21:33:38.978Z,3.00
2023-01-30T21:36:08.796Z,3.80
2023-01-30T21:38:55.097Z,3.40
2023-01-30T21:41:43.478Z,2.70
2023-01-30T21:44:12.640Z,2.80
2023-01-30T21:46:44.241Z,3.30
2023-01-30T21:49:12.889Z,3.87
2023-01-30T21:51:42.853Z,2.97
2023-01-30T21:54:11.108Z,4.30
2023-01-30T21:56:39.294Z,3.10
2023-01-30T21:59:07.730Z,3.93
2023-01-30T22:01:36.623Z,3.33
2023-01-30T22:04:09.184Z,3.90
2023-01-30T22:06:38.986Z,3.30
2023-01-30T22:09:07.781Z,3.50
2023-01-30T22:11:37.709Z,3.30
2023-01-30T22:14:06.640Z,2.97
2023-01-30T22:16:35.133Z,3.10
2023-01-30T22:19:06.028Z,3.50
2023-01-30T22:21:36.221Z,3.47
2023-01-30T22:24:07.549Z,3.87
2023-01-30T22:27:14.544Z,3.67
2023-01-30T22:29:42.981Z,3.80
2023-01-30T22:32:11.145Z,3.60
2023-01-30T22:34:40.711Z,3.27
2023-01-30T22:37:08.882Z,2.57
2023-01-30T22:39:37.580Z,3.47
2023-01-30T22:42:06.025Z,3.67
2023-01-30T22:44:34.419Z,3.47
2023-01-30T22:47:02.547Z,3.80
2023-01-30T22:49:30.659Z,3.20
2023-01-30T22:52:01.732Z,2.90
2023-01-30T22:54:30.213Z,3.33
2023-01-30T22:56:58.697Z,3.17
2023-01-30T22:59:27.173Z,3.53
2023-01-30T23:01:55.591Z,3.20
2023-01-30T23:04:25.014Z,3.27
2023-01-30T23:06:53.636Z,3.57
2023-01-30T23:09:24.561Z,2.60
2023-01-30T23:12:20.784Z,4.03
2023-01-30T23:14:49.207Z,2.70
2023-01-30T23:17:34.866Z,2.50
2023-01-30T23:20:03.004Z,3.00
2023-01-30T23:22:31.038Z,2.97
2023-01-30T23:25:00.602Z,2.93
2023-01-30T23:27:28.650Z,2.70
2023-01-30T23:29:57.023Z,1.83
2023-01-30T23:32:25.409Z,2.73
2023-01-30T23:34:53.502Z,2.67
2023-01-30T23:37:42.886Z,3.00
2023-01-30T23:40:13.523Z,2.87
2023-01-30T23:42:41.875Z,2.27
2023-01-30T23:45:11.116Z,3.23
2023-01-30T23:47:39.341Z,2.10
2023-01-30T23:50:08.390Z,2.77
2023-01-30T23:52:36.809Z,3.17
2023-01-30T23:55:05.169Z,2.70
2023-01-30T23:57:35.133Z,2.93
